sensor_id;sensor_type;location;lat;lon;timestamp;pressure;altitude;pressure_sealevel;temperature
15544;BMP180;7873;52.230;12.856;2023-07-29T00:00:41;100085.28;;;24.38
15544;BMP180;7873;52.230;12.856;2023-07-29T00:03:09;100091.06;;;24.41
15544;BMP180;7873;52.230;12.856;2023-07-29T00:05:36;100085.69;;;24.41
15544;BMP180;7873;52.230;12.856;2023-07-29T00:08:03;100073.06;;;24.42
15544;BMP180;7873;52.230;12.856;2023-07-29T00:10:31;100077.63;;;24.41
15544;BMP180;7873;52.230;12.856;2023-07-29T00:12:58;100078.47;;;24.42
15544;BMP180;7873;52.230;12.856;2023-07-29T00:15:25;100078.47;;;24.42
15544;BMP180;7873;52.230;12.856;2023-07-29T00:17:51;100075.78;;;24.42
15544;BMP180;7873;52.230;12.856;2023-07-29T00:20:19;100074.72;;;24.43
15544;BMP180;7873;52.230;12.856;2023-07-29T00:22:46;100078.25;;;24.43
15544;BMP180;7873;52.230;12.856;2023-07-29T00:25:15;100076.59;;;24.42
15544;BMP180;7873;52.230;12.856;2023-07-29T00:27:41;100077.63;;;24.41
15544;BMP180;7873;52.230;12.856;2023-07-29T00:30:09;100075.16;;;24.40
15544;BMP180;7873;52.230;12.856;2023-07-29T00:32:35;100078.03;;;24.38
15544;BMP180;7873;52.230;12.856;2023-07-29T00:35:03;100069.13;;;24.38
15544;BMP180;7873;52.230;12.856;2023-07-29T00:37:31;100073.66;;;24.37
15544;BMP180;7873;52.230;12.856;2023-07-29T00:39:57;100065.78;;;24.36
15544;BMP180;7873;52.230;12.856;2023-07-29T00:42:24;100058.56;;;24.36
15544;BMP180;7873;52.230;12.856;2023-07-29T00:44:51;100049.63;;;24.36
15544;BMP180;7873;52.230;12.856;2023-07-29T00:47:18;100055.88;;;24.36
15544;BMP180;7873;52.230;12.856;2023-07-29T00:49:46;100054.84;;;24.37
15544;BMP180;7873;52.230;12.856;2023-07-29T00:52:13;100047.59;;;24.38
15544;BMP180;7873;52.230;12.856;2023-07-29T00:54:42;100039.31;;;24.39
15544;BMP180;7873;52.230;12.856;2023-07-29T00:57:10;100047.38;;;24.39
15544;BMP180;7873;52.230;12.856;2023-07-29T00:59:39;100036.63;;;24.39
15544;BMP180;7873;52.230;12.856;2023-07-29T01:02:06;100041.19;;;24.39
15544;BMP180;7873;52.230;12.856;2023-07-29T01:04:33;100046.56;;;24.39
15544;BMP180;7873;52.230;12.856;2023-07-29T01:07:06;100054.66;;;24.39
15544;BMP180;7873;52.230;12.856;2023-07-29T01:09:43;100045.53;;;24.40
15544;BMP180;7873;52.230;12.856;2023-07-29T01:12:18;100049.25;;;24.39
15544;BMP180;7873;52.230;12.856;2023-07-29T01:14:52;100043.03;;;24.38
15544;BMP180;7873;52.230;12.856;2023-07-29T01:17:23;100043.88;;;24.39
15544;BMP180;7873;52.230;12.856;2023-07-29T01:19:59;100047.78;;;24.36
15544;BMP180;7873;52.230;12.856;2023-07-29T01:22:27;100032.69;;;24.35
15544;BMP180;7873;52.230;12.856;2023-07-29T01:24:56;100035.38;;;24.35
15544;BMP180;7873;52.230;12.856;2023-07-29T01:27:23;100041.56;;;24.36
15544;BMP180;7873;52.230;12.856;2023-07-29T01:29:50;100039.72;;;24.36
15544;BMP180;7873;52.230;12.856;2023-07-29T01:32:20;100040.56;;;24.37
15544;BMP180;7873;52.230;12.856;2023-07-29T01:34:55;100036.19;;;24.36
15544;BMP180;7873;52.230;12.856;2023-07-29T01:37:26;100031.84;;;24.35
15544;BMP180;7873;52.230;12.856;2023-07-29T01:39:56;100030.81;;;24.36
15544;BMP180;7873;52.230;12.856;2023-07-29T01:42:24;100026.28;;;24.36
15544;BMP180;7873;52.230;12.856;2023-07-29T01:44:51;100028.97;;;24.36
15544;BMP180;7873;52.230;12.856;2023-07-29T01:47:18;100023.56;;;24.36
15544;BMP180;7873;52.230;12.856;2023-07-29T01:49:44;100030.63;;;24.37
15544;BMP180;7873;52.230;12.856;2023-07-29T01:52:11;100030.63;;;24.37
15544;BMP180;7873;52.230;12.856;2023-07-29T01:54:38;100036.00;;;24.37
15544;BMP180;7873;52.230;12.856;2023-07-29T01:57:06;100031.66;;;24.36
15544;BMP180;7873;52.230;12.856;2023-07-29T01:59:32;100028.13;;;24.36
15544;BMP180;7873;52.230;12.856;2023-07-29T02:01:59;100035.38;;;24.35
15544;BMP180;7873;52.230;12.856;2023-07-29T02:04:26;100042.41;;;24.36
15544;BMP180;7873;52.230;12.856;2023-07-29T02:06:53;100034.34;;;24.36
15544;BMP180;7873;52.230;12.856;2023-07-29T02:09:20;100037.88;;;24.37
15544;BMP180;7873;52.230;12.856;2023-07-29T02:11:47;100035.19;;;24.37
15544;BMP180;7873;52.230;12.856;2023-07-29T02:14:15;100027.31;;;24.35
15544;BMP180;7873;52.230;12.856;2023-07-29T02:16:41;100027.13;;;24.37
15544;BMP180;7873;52.230;12.856;2023-07-29T02:19:08;100020.88;;;24.36
15544;BMP180;7873;52.230;12.856;2023-07-29T02:21:35;100034.16;;;24.38
15544;BMP180;7873;52.230;12.856;2023-07-29T02:24:02;100039.72;;;24.36
15544;BMP180;7873;52.230;12.856;2023-07-29T02:26:28;100031.66;;;24.36
15544;BMP180;7873;52.230;12.856;2023-07-29T02:28:55;100031.66;;;24.36
15544;BMP180;7873;52.230;12.856;2023-07-29T02:31:24;100038.69;;;24.37
15544;BMP180;7873;52.230;12.856;2023-07-29T02:33:51;100036.00;;;24.37
15544;BMP180;7873;52.230;12.856;2023-07-29T02:36:18;100039.53;;;24.38
15544;BMP180;7873;52.230;12.856;2023-07-29T02:38:45;100044.06;;;24.37
15544;BMP180;7873;52.230;12.856;2023-07-29T02:41:12;100039.72;;;24.36
15544;BMP180;7873;52.230;12.856;2023-07-29T02:43:41;100048.63;;;24.37
15544;BMP180;7873;52.230;12.856;2023-07-29T02:46:08;100035.19;;;24.37
15544;BMP180;7873;52.230;12.856;2023-07-29T02:48:36;100037.88;;;24.37
15544;BMP180;7873;52.230;12.856;2023-07-29T02:51:03;100040.56;;;24.37
15544;BMP180;7873;52.230;12.856;2023-07-29T02:53:29;100042.41;;;24.36
15544;BMP180;7873;52.230;12.856;2023-07-29T02:55:56;100039.72;;;24.36
15544;BMP180;7873;52.230;12.856;2023-07-29T02:58:23;100044.06;;;24.37
15544;BMP180;7873;52.230;12.856;2023-07-29T03:00:51;100038.88;;;24.36
15544;BMP180;7873;52.230;12.856;2023-07-29T03:03:18;100038.69;;;24.37
15544;BMP180;7873;52.230;12.856;2023-07-29T03:05:46;100030.63;;;24.37
15544;BMP180;7873;52.230;12.856;2023-07-29T03:08:13;100024.44;;;24.37
15544;BMP180;7873;52.230;12.856;2023-07-29T03:10:40;100021.72;;;24.37
15544;BMP180;7873;52.230;12.856;2023-07-29T03:13:07;100023.56;;;24.36
15544;BMP180;7873;52.230;12.856;2023-07-29T03:15:34;100019.84;;;24.37
15544;BMP180;7873;52.230;12.856;2023-07-29T03:18:00;100018.19;;;24.36
15544;BMP180;7873;52.230;12.856;2023-07-29T03:20:27;100022.53;;;24.37
15544;BMP180;7873;52.230;12.856;2023-07-29T03:22:55;100027.94;;;24.37
15544;BMP180;7873;52.230;12.856;2023-07-29T03:25:22;100018.38;;;24.35
15544;BMP180;7873;52.230;12.856;2023-07-29T03:27:49;100014.88;;;24.34
15544;BMP180;7873;52.230;12.856;2023-07-29T03:30:19;100022.94;;;24.34
15544;BMP180;7873;52.230;12.856;2023-07-29T03:32:46;100020.25;;;24.34
15544;BMP180;7873;52.230;12.856;2023-07-29T03:35:12;100017.75;;;24.33
15544;BMP180;7873;52.230;12.856;2023-07-29T03:37:39;100021.06;;;24.35
15544;BMP180;7873;52.230;12.856;2023-07-29T03:40:08;100029.16;;;24.35
15544;BMP180;7873;52.230;12.856;2023-07-29T03:42:35;100018.19;;;24.36
15544;BMP180;7873;52.230;12.856;2023-07-29T03:45:02;100014.66;;;24.36
15544;BMP180;7873;52.230;12.856;2023-07-29T03:47:29;100018.19;;;24.36
15544;BMP180;7873;52.230;12.856;2023-07-29T03:49:56;100013.22;;;24.33
15544;BMP180;7873;52.230;12.856;2023-07-29T03:52:23;100014.88;;;24.34
15544;BMP180;7873;52.230;12.856;2023-07-29T03:54:49;100014.25;;;24.32
15544;BMP180;7873;52.230;12.856;2023-07-29T03:57:17;100026.69;;;24.33
15544;BMP180;7873;52.230;12.856;2023-07-29T03:59:44;100019.63;;;24.32
15544;BMP180;7873;52.230;12.856;2023-07-29T04:02:11;100018.78;;;24.32
15544;BMP180;7873;52.230;12.856;2023-07-29T04:04:37;100015.06;;;24.33
15544;BMP180;7873;52.230;12.856;2023-07-29T04:07:05;100016.09;;;24.32
15544;BMP180;7873;52.230;12.856;2023-07-29T04:09:32;100008.88;;;24.32
15544;BMP180;7873;52.230;12.856;2023-07-29T04:11:59;100019.63;;;24.32
15544;BMP180;7873;52.230;12.856;2023-07-29T04:14:27;100010.53;;;24.33
15544;BMP180;7873;52.230;12.856;2023-07-29T04:16:53;100009.06;;;24.31
15544;BMP180;7873;52.230;12.856;2023-07-29T04:19:20;100016.09;;;24.32
15544;BMP180;7873;52.230;12.856;2023-07-29T04:21:47;100014.25;;;24.32
15544;BMP180;7873;52.230;12.856;2023-07-29T04:24:16;100010.53;;;24.33
15544;BMP180;7873;52.230;12.856;2023-07-29T04:26:43;100014.03;;;24.34
15544;BMP180;7873;52.230;12.856;2023-07-29T04:29:10;100012.38;;;24.33
15544;BMP180;7873;52.230;12.856;2023-07-29T04:31:38;100004.31;;;24.33
15544;BMP180;7873;52.230;12.856;2023-07-29T04:34:05;100011.56;;;24.32
15544;BMP180;7873;52.230;12.856;2023-07-29T04:36:31;100002.66;;;24.32
15544;BMP180;7873;52.230;12.856;2023-07-29T04:38:58;100007.22;;;24.31
15544;BMP180;7873;52.230;12.856;2023-07-29T04:41:25;100007.22;;;24.31
15544;BMP180;7873;52.230;12.856;2023-07-29T04:43:51;100017.13;;;24.31
15544;BMP180;7873;52.230;12.856;2023-07-29T04:46:18;100025.03;;;24.32
15544;BMP180;7873;52.230;12.856;2023-07-29T04:48:46;100016.31;;;24.30
15544;BMP180;7873;52.230;12.856;2023-07-29T04:51:13;100023.38;;;24.31
15544;BMP180;7873;52.230;12.856;2023-07-29T04:53:39;100021.91;;;24.29
15544;BMP180;7873;52.230;12.856;2023-07-29T04:56:06;100017.34;;;24.29
15544;BMP180;7873;52.230;12.856;2023-07-29T04:58:33;100014.44;;;24.31
15544;BMP180;7873;52.230;12.856;2023-07-29T05:01:00;100016.31;;;24.30
15544;BMP180;7873;52.230;12.856;2023-07-29T05:03:27;100021.69;;;24.30
15544;BMP180;7873;52.230;12.856;2023-07-29T05:05:55;100017.34;;;24.29
15544;BMP180;7873;52.230;12.856;2023-07-29T05:08:22;100015.47;;;24.30
15544;BMP180;7873;52.230;12.856;2023-07-29T05:10:49;100007.22;;;24.31
15544;BMP180;7873;52.230;12.856;2023-07-29T05:13:17;100008.03;;;24.32
15544;BMP180;7873;52.230;12.856;2023-07-29T05:15:43;99997.28;;;24.32
15544;BMP180;7873;52.230;12.856;2023-07-29T05:18:11;99994.56;;;24.32
15544;BMP180;7873;52.230;12.856;2023-07-29T05:20:38;99989.19;;;24.32
15544;BMP180;7873;52.230;12.856;2023-07-29T05:23:06;99990.84;;;24.33
15544;BMP180;7873;52.230;12.856;2023-07-29T05:25:32;99994.56;;;24.32
15544;BMP180;7873;52.230;12.856;2023-07-29T05:28:00;99990.22;;;24.31
15544;BMP180;7873;52.230;12.856;2023-07-29T05:30:26;99992.91;;;24.31
15544;BMP180;7873;52.230;12.856;2023-07-29T05:32:56;99991.69;;;24.33
15544;BMP180;7873;52.230;12.856;2023-07-29T05:35:23;99995.41;;;24.32
15544;BMP180;7873;52.230;12.856;2023-07-29T05:37:49;99995.41;;;24.32
15544;BMP180;7873;52.230;12.856;2023-07-29T05:40:18;99989.19;;;24.32
15544;BMP180;7873;52.230;12.856;2023-07-29T05:42:45;99978.84;;;24.29
15544;BMP180;7873;52.230;12.856;2023-07-29T05:45:11;99984.84;;;24.31
15544;BMP180;7873;52.230;12.856;2023-07-29T05:47:38;99977.00;;;24.29
15544;BMP180;7873;52.230;12.856;2023-07-29T05:50:05;99982.38;;;24.29
15544;BMP180;7873;52.230;12.856;2023-07-29T05:52:33;99978.66;;;24.30
15544;BMP180;7873;52.230;12.856;2023-07-29T05:55:00;99968.72;;;24.31
15544;BMP180;7873;52.230;12.856;2023-07-29T05:57:28;99979.28;;;24.32
15544;BMP180;7873;52.230;12.856;2023-07-29T05:59:54;99974.94;;;24.31
15544;BMP180;7873;52.230;12.856;2023-07-29T06:02:21;99981.97;;;24.32
15544;BMP180;7873;52.230;12.856;2023-07-29T06:04:48;99979.47;;;24.31
15544;BMP180;7873;52.230;12.856;2023-07-29T06:07:15;99981.34;;;24.30
15544;BMP180;7873;52.230;12.856;2023-07-29T06:09:41;99985.03;;;24.23
15544;BMP180;7873;52.230;12.856;2023-07-29T06:12:08;99990.00;;;24.26
15544;BMP180;7873;52.230;12.856;2023-07-29T06:14:36;99989.81;;;24.27
15544;BMP180;7873;52.230;12.856;2023-07-29T06:17:03;99995.00;;;24.35
15544;BMP180;7873;52.230;12.856;2023-07-29T06:19:32;100000.59;;;24.40
15544;BMP180;7873;52.230;12.856;2023-07-29T06:21:58;99998.00;;;24.53
15544;BMP180;7873;52.230;12.856;2023-07-29T06:24:26;99998.63;;;24.62
15544;BMP180;7873;52.230;12.856;2023-07-29T06:26:53;99999.66;;;24.67
15544;BMP180;7873;52.230;12.856;2023-07-29T06:29:20;100001.31;;;24.75
15544;BMP180;7873;52.230;12.856;2023-07-29T06:31:48;100003.59;;;24.78
15544;BMP180;7873;52.230;12.856;2023-07-29T06:34:16;100002.16;;;24.75
15544;BMP180;7873;52.230;12.856;2023-07-29T06:36:44;99999.25;;;24.77
15544;BMP180;7873;52.230;12.856;2023-07-29T06:39:10;99996.75;;;24.82
15544;BMP180;7873;52.230;12.856;2023-07-29T06:41:37;99998.22;;;24.78
15544;BMP180;7873;52.230;12.856;2023-07-29T06:44:04;100002.56;;;24.85
15544;BMP180;7873;52.230;12.856;2023-07-29T06:46:31;100002.38;;;24.87
15544;BMP180;7873;52.230;12.856;2023-07-29T06:48:59;100006.31;;;24.84
15544;BMP180;7873;52.230;12.856;2023-07-29T06:51:26;100005.91;;;24.87
15544;BMP180;7873;52.230;12.856;2023-07-29T06:53:54;100009.22;;;24.89
15544;BMP180;7873;52.230;12.856;2023-07-29T06:56:21;100016.88;;;24.92
15544;BMP180;7873;52.230;12.856;2023-07-29T06:58:48;100010.66;;;24.92
15544;BMP180;7873;52.230;12.856;2023-07-29T07:01:14;100008.19;;;24.84
15544;BMP180;7873;52.230;12.856;2023-07-29T07:03:41;100004.25;;;24.73
15544;BMP180;7873;52.230;12.856;2023-07-29T07:06:09;100015.19;;;24.65
15544;BMP180;7873;52.230;12.856;2023-07-29T07:08:36;100014.16;;;24.60
15544;BMP180;7873;52.230;12.856;2023-07-29T07:11:02;100009.00;;;24.65
15544;BMP180;7873;52.230;12.856;2023-07-29T07:13:29;100013.97;;;24.68
15544;BMP180;7873;52.230;12.856;2023-07-29T07:15:56;100004.84;;;24.82
15544;BMP180;7873;52.230;12.856;2023-07-29T07:18:23;99991.41;;;24.75
15544;BMP180;7873;52.230;12.856;2023-07-29T07:20:50;99988.91;;;24.80
15544;BMP180;7873;52.230;12.856;2023-07-29T07:23:18;99986.00;;;24.82
15544;BMP180;7873;52.230;12.856;2023-07-29T07:25:45;99994.09;;;24.88
15544;BMP180;7873;52.230;12.856;2023-07-29T07:28:11;99986.22;;;24.93
15544;BMP180;7873;52.230;12.856;2023-07-29T07:30:39;99979.59;;;24.96
15544;BMP180;7873;52.230;12.856;2023-07-29T07:33:06;99977.13;;;24.88
15544;BMP180;7873;52.230;12.856;2023-07-29T07:35:33;99977.13;;;24.88
15544;BMP180;7873;52.230;12.856;2023-07-29T07:37:59;99969.84;;;24.88
15544;BMP180;7873;52.230;12.856;2023-07-29T07:40:30;99973.81;;;24.86
15544;BMP180;7873;52.230;12.856;2023-07-29T07:42:57;99978.97;;;24.87
15544;BMP180;7873;52.230;12.856;2023-07-29T07:45:24;99973.19;;;24.77
15544;BMP180;7873;52.230;12.856;2023-07-29T07:47:51;99970.47;;;24.77
15544;BMP180;7873;52.230;12.856;2023-07-29T07:50:18;99962.00;;;24.80
15544;BMP180;7873;52.230;12.856;2023-07-29T07:52:44;99961.13;;;24.80
15544;BMP180;7873;52.230;12.856;2023-07-29T07:55:11;99961.16;;;24.67
15544;BMP180;7873;52.230;12.856;2023-07-29T07:57:39;99965.50;;;24.68
15544;BMP180;7873;52.230;12.856;2023-07-29T08:00:07;99971.91;;;24.60
15544;BMP180;7873;52.230;12.856;2023-07-29T08:02:34;99969.41;;;24.59
15544;BMP180;7873;52.230;12.856;2023-07-29T08:05:01;99967.59;;;24.72
15544;BMP180;7873;52.230;12.856;2023-07-29T08:07:28;99970.88;;;24.81
15544;BMP180;7873;52.230;12.856;2023-07-29T08:09:54;99971.50;;;24.83
15544;BMP180;7873;52.230;12.856;2023-07-29T08:12:21;99971.31;;;24.91
15544;BMP180;7873;52.230;12.856;2023-07-29T08:14:49;99972.34;;;24.96
15544;BMP180;7873;52.230;12.856;2023-07-29T08:17:16;99961.16;;;24.93
15544;BMP180;7873;52.230;12.856;2023-07-29T08:19:43;99955.56;;;24.88
15544;BMP180;7873;52.230;12.856;2023-07-29T08:22:09;99956.81;;;24.92
15544;BMP180;7873;52.230;12.856;2023-07-29T08:24:36;99946.03;;;24.85
15544;BMP180;7873;52.230;12.856;2023-07-29T08:27:03;99938.56;;;24.87
15544;BMP180;7873;52.230;12.856;2023-07-29T08:29:30;99953.28;;;24.91
15544;BMP180;7873;52.230;12.856;2023-07-29T08:31:58;99948.13;;;24.96
15544;BMP180;7873;52.230;12.856;2023-07-29T08:34:24;99943.97;;;25.00
15544;BMP180;7873;52.230;12.856;2023-07-29T08:36:51;99947.06;;;24.97
15544;BMP180;7873;52.230;12.856;2023-07-29T08:39:18;99944.56;;;25.02
15544;BMP180;7873;52.230;12.856;2023-07-29T08:41:48;99955.78;;;24.93
15544;BMP180;7873;52.230;12.856;2023-07-29T08:44:21;99946.03;;;24.98
15544;BMP180;7873;52.230;12.856;2023-07-29T08:46:49;99947.47;;;25.01
15544;BMP180;7873;52.230;12.856;2023-07-29T08:49:18;99939.38;;;25.01
15544;BMP180;7873;52.230;12.856;2023-07-29T08:51:46;99944.56;;;25.02
15544;BMP180;7873;52.230;12.856;2023-07-29T08:54:14;99936.91;;;24.99
15544;BMP180;7873;52.230;12.856;2023-07-29T08:56:41;99938.34;;;25.02
15544;BMP180;7873;52.230;12.856;2023-07-29T08:59:09;99931.31;;;25.01
15544;BMP180;7873;52.230;12.856;2023-07-29T09:01:37;99935.47;;;25.03
15544;BMP180;7873;52.230;12.856;2023-07-29T09:04:04;99932.75;;;25.10
15544;BMP180;7873;52.230;12.856;2023-07-29T09:06:32;99931.72;;;25.11
15544;BMP180;7873;52.230;12.856;2023-07-29T09:09:00;99928.19;;;25.10
15544;BMP180;7873;52.230;12.856;2023-07-29T09:11:28;99926.72;;;25.14
15544;BMP180;7873;52.230;12.856;2023-07-29T09:13:54;99933.38;;;25.12
15544;BMP180;7873;52.230;12.856;2023-07-29T09:16:22;99924.25;;;25.06
15544;BMP180;7873;52.230;12.856;2023-07-29T09:18:49;99922.19;;;25.02
15544;BMP180;7873;52.230;12.856;2023-07-29T09:21:17;99928.81;;;25.12
15544;BMP180;7873;52.230;12.856;2023-07-29T09:23:45;99925.06;;;25.13
15544;BMP180;7873;52.230;12.856;2023-07-29T09:26:12;99917.41;;;25.10
15544;BMP180;7873;52.230;12.856;2023-07-29T09:28:39;99919.06;;;25.05
15544;BMP180;7873;52.230;12.856;2023-07-29T09:31:06;99925.31;;;25.05
15544;BMP180;7873;52.230;12.856;2023-07-29T09:33:44;99914.09;;;25.08
15544;BMP180;7873;52.230;12.856;2023-07-29T09:36:11;99912.03;;;25.10
15544;BMP180;7873;52.230;12.856;2023-07-29T09:38:38;99899.19;;;25.06
15544;BMP180;7873;52.230;12.856;2023-07-29T09:41:06;99897.13;;;25.01
15544;BMP180;7873;52.230;12.856;2023-07-29T09:43:34;99893.59;;;24.94
15544;BMP180;7873;52.230;12.856;2023-07-29T09:46:02;99900.25;;;24.92
15544;BMP180;7873;52.230;12.856;2023-07-29T09:48:32;99893.22;;;24.84
15544;BMP180;7873;52.230;12.856;2023-07-29T09:50:59;99889.66;;;24.97
15544;BMP180;7873;52.230;12.856;2023-07-29T09:53:26;99894.44;;;25.08
15544;BMP180;7873;52.230;12.856;2023-07-29T09:55:53;99885.28;;;25.15
15544;BMP180;7873;52.230;12.856;2023-07-29T09:58:27;99878.22;;;25.14
15544;BMP180;7873;52.230;12.856;2023-07-29T10:00:53;99873.91;;;25.20
15544;BMP180;7873;52.230;12.856;2023-07-29T10:03:21;99871.41;;;25.25
15544;BMP180;7873;52.230;12.856;2023-07-29T10:05:48;99858.78;;;25.19
15544;BMP180;7873;52.230;12.856;2023-07-29T10:08:15;99872.88;;;25.21
15544;BMP180;7873;52.230;12.856;2023-07-29T10:10:41;99881.38;;;25.18
15544;BMP180;7873;52.230;12.856;2023-07-29T10:13:09;99877.81;;;25.24
15544;BMP180;7873;52.230;12.856;2023-07-29T10:15:37;99877.19;;;25.28
15544;BMP180;7873;52.230;12.856;2023-07-29T10:18:04;99898.38;;;25.18
15544;BMP180;7873;52.230;12.856;2023-07-29T10:20:32;99910.59;;;25.21
15544;BMP180;7873;52.230;12.856;2023-07-29T10:23:00;99913.09;;;25.22
15544;BMP180;7873;52.230;12.856;2023-07-29T10:25:35;99904.59;;;25.19
15544;BMP180;7873;52.230;12.856;2023-07-29T10:28:05;99907.44;;;25.17
15544;BMP180;7873;52.230;12.856;2023-07-29T10:30:32;99916.41;;;25.18
15544;BMP180;7873;52.230;12.856;2023-07-29T10:33:02;99908.09;;;25.13
15544;BMP180;7873;52.230;12.856;2023-07-29T10:35:29;99904.13;;;25.15
15544;BMP180;7873;52.230;12.856;2023-07-29T10:37:56;99902.72;;;25.19
15544;BMP180;7873;52.230;12.856;2023-07-29T10:40:23;99899.81;;;25.27
15544;BMP180;7873;52.230;12.856;2023-07-29T10:43:00;99894.78;;;25.37
15544;BMP180;7873;52.230;12.856;2023-07-29T10:45:36;99876.78;;;25.31
15544;BMP180;7873;52.230;12.856;2023-07-29T10:48:08;99879.91;;;25.28
15544;BMP180;7873;52.230;12.856;2023-07-29T10:50:36;99876.38;;;25.28
15544;BMP180;7873;52.230;12.856;2023-07-29T10:53:03;99867.06;;;25.24
15544;BMP180;7873;52.230;12.856;2023-07-29T10:55:32;99867.03;;;25.17
15544;BMP180;7873;52.230;12.856;2023-07-29T10:58:12;99881.16;;;25.13
15544;BMP180;7873;52.230;12.856;2023-07-29T11:00:39;99872.03;;;25.14
15544;BMP180;7873;52.230;12.856;2023-07-29T11:03:09;99879.50;;;25.05
15544;BMP180;7873;52.230;12.856;2023-07-29T11:05:45;99872.66;;;25.09
15544;BMP180;7873;52.230;12.856;2023-07-29T11:08:19;99869.53;;;25.12
15544;BMP180;7873;52.230;12.856;2023-07-29T11:10:58;99873.88;;;25.13
15544;BMP180;7873;52.230;12.856;2023-07-29T11:13:26;99887.34;;;25.13
15544;BMP180;7873;52.230;12.856;2023-07-29T11:15:53;99907.88;;;25.14
15544;BMP180;7873;52.230;12.856;2023-07-29T11:18:26;99909.94;;;25.12
15544;BMP180;7873;52.230;12.856;2023-07-29T11:20:53;99905.81;;;25.10
15544;BMP180;7873;52.230;12.856;2023-07-29T11:23:20;99914.34;;;25.07
15544;BMP180;7873;52.230;12.856;2023-07-29T11:25:54;99908.94;;;25.07
15544;BMP180;7873;52.230;12.856;2023-07-29T11:28:21;99923.22;;;25.07
15544;BMP180;7873;52.230;12.856;2023-07-29T11:30:49;99919.72;;;25.07
15544;BMP180;7873;52.230;12.856;2023-07-29T11:33:17;99919.06;;;25.05
15544;BMP180;7873;52.230;12.856;2023-07-29T11:35:46;99915.75;;;25.03
15544;BMP180;7873;52.230;12.856;2023-07-29T11:38:15;99913.06;;;25.03
15544;BMP180;7873;52.230;12.856;2023-07-29T11:40:41;99903.56;;;25.00
15544;BMP180;7873;52.230;12.856;2023-07-29T11:43:08;99904.59;;;24.99
15544;BMP180;7873;52.230;12.856;2023-07-29T11:45:35;99918.06;;;24.99
15544;BMP180;7873;52.230;12.856;2023-07-29T11:48:02;99915.38;;;24.99
15544;BMP180;7873;52.230;12.856;2023-07-29T11:50:28;99910.00;;;24.99
15544;BMP180;7873;52.230;12.856;2023-07-29T11:52:57;99907.28;;;24.99
15544;BMP180;7873;52.230;12.856;2023-07-29T11:55:24;99911.84;;;24.99
15544;BMP180;7873;52.230;12.856;2023-07-29T11:57:51;99911.63;;;25.00
15544;BMP180;7873;52.230;12.856;2023-07-29T12:00:18;99903.75;;;24.99
15544;BMP180;7873;52.230;12.856;2023-07-29T12:02:47;99900.63;;;25.02
15544;BMP180;7873;52.230;12.856;2023-07-29T12:05:15;99896.09;;;25.02
15544;BMP180;7873;52.230;12.856;2023-07-29T12:07:44;99895.47;;;25.00
15544;BMP180;7873;52.230;12.856;2023-07-29T12:10:13;99896.09;;;25.02
15544;BMP180;7873;52.230;12.856;2023-07-29T12:12:47;99893.41;;;25.02
15544;BMP180;7873;52.230;12.856;2023-07-29T12:15:22;99894.22;;;25.03
15544;BMP180;7873;52.230;12.856;2023-07-29T12:17:52;99894.00;;;25.04
15544;BMP180;7873;52.230;12.856;2023-07-29T12:20:20;99884.91;;;25.05
15544;BMP180;7873;52.230;12.856;2023-07-29T12:22:51;99884.91;;;25.05
15544;BMP180;7873;52.230;12.856;2023-07-29T12:25:20;99873.69;;;25.08
15544;BMP180;7873;52.230;12.856;2023-07-29T12:27:47;99880.97;;;25.08
15544;BMP180;7873;52.230;12.856;2023-07-29T12:30:14;99878.03;;;25.09
15544;BMP180;7873;52.230;12.856;2023-07-29T12:32:44;99871.84;;;25.09
15544;BMP180;7873;52.230;12.856;2023-07-29T12:35:11;99879.09;;;25.08
15544;BMP180;7873;52.230;12.856;2023-07-29T12:37:38;99868.53;;;25.07
15544;BMP180;7873;52.230;12.856;2023-07-29T12:40:21;99871.00;;;25.08
15544;BMP180;7873;52.230;12.856;2023-07-29T12:42:49;99870.81;;;25.10
15544;BMP180;7873;52.230;12.856;2023-07-29T12:45:16;99857.75;;;25.07
15544;BMP180;7873;52.230;12.856;2023-07-29T12:47:43;99863.75;;;25.09
15544;BMP180;7873;52.230;12.856;2023-07-29T12:50:09;99857.97;;;25.05
15544;BMP180;7873;52.230;12.856;2023-07-29T12:52:36;99860.22;;;25.08
15544;BMP180;7873;52.230;12.856;2023-07-29T12:55:04;99861.66;;;25.17
15544;BMP180;7873;52.230;12.856;2023-07-29T12:57:32;99855.88;;;25.20
15544;BMP180;7873;52.230;12.856;2023-07-29T12:59:58;99869.97;;;25.22
15544;BMP180;7873;52.230;12.856;2023-07-29T13:02:25;99863.34;;;25.18
15544;BMP180;7873;52.230;12.856;2023-07-29T13:04:52;99853.78;;;25.16
15544;BMP180;7873;52.230;12.856;2023-07-29T13:07:18;99856.25;;;25.17
15544;BMP180;7873;52.230;12.856;2023-07-29T13:09:45;99860.41;;;25.13
15544;BMP180;7873;52.230;12.856;2023-07-29T13:12:12;99864.38;;;25.11
15544;BMP180;7873;52.230;12.856;2023-07-29T13:14:40;99858.75;;;25.12
15544;BMP180;7873;52.230;12.856;2023-07-29T13:17:08;99864.56;;;25.16
15544;BMP180;7873;52.230;12.856;2023-07-29T13:19:38;99861.25;;;25.14
15544;BMP180;7873;52.230;12.856;2023-07-29T13:22:07;99866.84;;;25.12
15544;BMP180;7873;52.230;12.856;2023-07-29T13:24:35;99860.66;;;25.18
15544;BMP180;7873;52.230;12.856;2023-07-29T13:27:11;99865.81;;;25.20
15544;BMP180;7873;52.230;12.856;2023-07-29T13:29:41;99862.91;;;25.08
15544;BMP180;7873;52.230;12.856;2023-07-29T13:32:09;99862.28;;;25.13
15544;BMP180;7873;52.230;12.856;2023-07-29T13:34:36;99852.56;;;25.05
15544;BMP180;7873;52.230;12.856;2023-07-29T13:37:06;99848.22;;;25.04
15544;BMP180;7873;52.230;12.856;2023-07-29T13:39:35;99843.25;;;25.01
15544;BMP180;7873;52.230;12.856;2023-07-29T13:42:03;99851.72;;;25.05
15544;BMP180;7873;52.230;12.856;2023-07-29T13:44:32;99856.31;;;25.04
15544;BMP180;7873;52.230;12.856;2023-07-29T13:47:03;99851.09;;;25.09
15544;BMP180;7873;52.230;12.856;2023-07-29T13:49:34;99841.56;;;25.13
15544;BMP180;7873;52.230;12.856;2023-07-29T13:52:02;99843.22;;;25.14
15544;BMP180;7873;52.230;12.856;2023-07-29T13:54:29;99842.59;;;25.12
15544;BMP180;7873;52.230;12.856;2023-07-29T13:56:55;99843.22;;;25.14
15544;BMP180;7873;52.230;12.856;2023-07-29T13:59:22;99845.28;;;25.12
15544;BMP180;7873;52.230;12.856;2023-07-29T14:01:49;99845.94;;;25.21
15544;BMP180;7873;52.230;12.856;2023-07-29T14:04:17;99835.38;;;25.19
15544;BMP180;7873;52.230;12.856;2023-07-29T14:06:43;99841.56;;;25.20